sensor_id;sensor_type;location;lat;lon;timestamp;temperature;humidity
11389;DHT22;5750;48.474;8.952;2022-10-26T00:00:50;11.70;99.90
11389;DHT22;5750;48.474;8.952;2022-10-26T00:03:16;11.80;99.90
11389;DHT22;5750;48.474;8.952;2022-10-26T00:05:45;11.80;99.90
11389;DHT22;5750;48.474;8.952;2022-10-26T00:08:11;11.80;99.90
11389;DHT22;5750;48.474;8.952;2022-10-26T00:10:38;11.90;99.90
11389;DHT22;5750;48.474;8.952;2022-10-26T00:13:06;11.90;99.90
11389;DHT22;5750;48.474;8.952;2022-10-26T00:15:33;11.90;99.90
11389;DHT22;5750;48.474;8.952;2022-10-26T00:18:00;12.00;99.90
11389;DHT22;5750;48.474;8.952;2022-10-26T00:20:26;12.00;99.90
11389;DHT22;5750;48.474;8.952;2022-10-26T00:22:54;11.90;99.90
11389;DHT22;5750;48.474;8.952;2022-10-26T00:25:21;11.90;99.90
11389;DHT22;5750;48.474;8.952;2022-10-26T00:27:47;11.90;99.90
11389;DHT22;5750;48.474;8.952;2022-10-26T00:30:14;11.90;99.90
11389;DHT22;5750;48.474;8.952;2022-10-26T00:32:41;11.90;99.90
11389;DHT22;5750;48.474;8.952;2022-10-26T00:35:07;11.90;99.90
11389;DHT22;5750;48.474;8.952;2022-10-26T00:37:34;12.00;99.90
11389;DHT22;5750;48.474;8.952;2022-10-26T00:40:02;12.00;99.90
11389;DHT22;5750;48.474;8.952;2022-10-26T00:42:29;12.00;99.90
11389;DHT22;5750;48.474;8.952;2022-10-26T00:44:59;12.00;99.90
11389;DHT22;5750;48.474;8.952;2022-10-26T00:47:37;11.90;99.90
11389;DHT22;5750;48.474;8.952;2022-10-26T00:50:06;12.00;99.90
11389;DHT22;5750;48.474;8.952;2022-10-26T00:52:33;11.90;99.90
11389;DHT22;5750;48.474;8.952;2022-10-26T00:55:01;11.90;99.90
11389;DHT22;5750;48.474;8.952;2022-10-26T00:57:28;11.90;99.90
11389;DHT22;5750;48.474;8.952;2022-10-26T00:59:55;11.80;99.90
11389;DHT22;5750;48.474;8.952;2022-10-26T01:02:22;11.80;99.90
11389;DHT22;5750;48.474;8.952;2022-10-26T01:04:48;11.90;99.90
11389;DHT22;5750;48.474;8.952;2022-10-26T01:07:15;11.90;99.90
11389;DHT22;5750;48.474;8.952;2022-10-26T01:09:42;11.90;99.90
11389;DHT22;5750;48.474;8.952;2022-10-26T01:12:10;11.90;99.90
11389;DHT22;5750;48.474;8.952;2022-10-26T01:14:36;11.90;99.90
11389;DHT22;5750;48.474;8.952;2022-10-26T01:17:06;12.00;99.90
11389;DHT22;5750;48.474;8.952;2022-10-26T01:19:41;11.90;99.90
11389;DHT22;5750;48.474;8.952;2022-10-26T01:22:10;12.00;99.90
11389;DHT22;5750;48.474;8.952;2022-10-26T01:24:44;12.00;99.90
11389;DHT22;5750;48.474;8.952;2022-10-26T01:27:16;11.90;99.90
11389;DHT22;5750;48.474;8.952;2022-10-26T01:32:31;11.90;99.90
11389;DHT22;5750;48.474;8.952;2022-10-26T01:35:00;11.80;99.90
11389;DHT22;5750;48.474;8.952;2022-10-26T01:37:31;11.80;99.90
11389;DHT22;5750;48.474;8.952;2022-10-26T01:40:02;11.80;99.90
11389;DHT22;5750;48.474;8.952;2022-10-26T01:42:31;11.70;99.90
11389;DHT22;5750;48.474;8.952;2022-10-26T01:45:02;11.70;99.90
11389;DHT22;5750;48.474;8.952;2022-10-26T01:47:31;11.70;99.90
11389;DHT22;5750;48.474;8.952;2022-10-26T01:49:59;11.70;99.90
11389;DHT22;5750;48.474;8.952;2022-10-26T01:52:26;11.70;99.90
11389;DHT22;5750;48.474;8.952;2022-10-26T01:54:58;11.70;99.90
11389;DHT22;5750;48.474;8.952;2022-10-26T01:57:25;11.70;99.90
11389;DHT22;5750;48.474;8.952;2022-10-26T02:00:01;11.70;99.90
11389;DHT22;5750;48.474;8.952;2022-10-26T02:02:41;11.70;99.90
11389;DHT22;5750;48.474;8.952;2022-10-26T02:05:18;11.70;99.90
11389;DHT22;5750;48.474;8.952;2022-10-26T02:07:49;11.70;99.90
11389;DHT22;5750;48.474;8.952;2022-10-26T02:10:21;11.70;99.90
11389;DHT22;5750;48.474;8.952;2022-10-26T02:12:52;11.70;99.90
11389;DHT22;5750;48.474;8.952;2022-10-26T02:15:21;11.70;99.90
11389;DHT22;5750;48.474;8.952;2022-10-26T02:17:52;11.70;99.90
11389;DHT22;5750;48.474;8.952;2022-10-26T02:20:21;11.60;99.90
11389;DHT22;5750;48.474;8.952;2022-10-26T02:22:50;11.60;99.90
11389;DHT22;5750;48.474;8.952;2022-10-26T02:25:19;11.60;99.90
11389;DHT22;5750;48.474;8.952;2022-10-26T02:27:48;11.50;99.90
11389;DHT22;5750;48.474;8.952;2022-10-26T02:30:17;11.50;99.90
11389;DHT22;5750;48.474;8.952;2022-10-26T02:32:44;11.50;99.90
11389;DHT22;5750;48.474;8.952;2022-10-26T02:35:13;11.50;99.90
11389;DHT22;5750;48.474;8.952;2022-10-26T02:37:41;11.50;99.90
11389;DHT22;5750;48.474;8.952;2022-10-26T02:40:10;11.50;99.90
11389;DHT22;5750;48.474;8.952;2022-10-26T02:42:38;11.50;99.90
11389;DHT22;5750;48.474;8.952;2022-10-26T02:45:07;11.50;99.90
11389;DHT22;5750;48.474;8.952;2022-10-26T02:47:36;11.60;99.90
11389;DHT22;5750;48.474;8.952;2022-10-26T02:50:03;11.60;99.90
11389;DHT22;5750;48.474;8.952;2022-10-26T02:52:32;11.60;99.90
11389;DHT22;5750;48.474;8.952;2022-10-26T02:55:02;11.70;99.90
11389;DHT22;5750;48.474;8.952;2022-10-26T02:57:31;11.60;99.90
11389;DHT22;5750;48.474;8.952;2022-10-26T02:59:59;11.50;99.90
11389;DHT22;5750;48.474;8.952;2022-10-26T03:02:26;11.50;99.90
11389;DHT22;5750;48.474;8.952;2022-10-26T03:04:54;11.50;99.90
11389;DHT22;5750;48.474;8.952;2022-10-26T03:07:21;11.50;99.90
11389;DHT22;5750;48.474;8.952;2022-10-26T03:09:49;11.50;99.90
11389;DHT22;5750;48.474;8.952;2022-10-26T03:12:16;11.60;99.90
11389;DHT22;5750;48.474;8.952;2022-10-26T03:14:42;11.60;99.90
11389;DHT22;5750;48.474;8.952;2022-10-26T03:17:09;11.70;99.90
11389;DHT22;5750;48.474;8.952;2022-10-26T03:19:35;11.70;99.90
11389;DHT22;5750;48.474;8.952;2022-10-26T03:22:02;11.70;99.90
11389;DHT22;5750;48.474;8.952;2022-10-26T03:24:28;11.70;99.90
11389;DHT22;5750;48.474;8.952;2022-10-26T03:26:56;11.70;99.90
11389;DHT22;5750;48.474;8.952;2022-10-26T03:29:23;11.80;99.90
11389;DHT22;5750;48.474;8.952;2022-10-26T03:31:49;11.80;99.90
11389;DHT22;5750;48.474;8.952;2022-10-26T03:34:18;11.80;99.90
11389;DHT22;5750;48.474;8.952;2022-10-26T03:36:45;11.90;99.90
11389;DHT22;5750;48.474;8.952;2022-10-26T03:39:11;11.90;99.90
11389;DHT22;5750;48.474;8.952;2022-10-26T03:41:38;12.00;99.90
11389;DHT22;5750;48.474;8.952;2022-10-26T03:44:06;12.10;99.90
11389;DHT22;5750;48.474;8.952;2022-10-26T03:46:32;12.00;99.90
11389;DHT22;5750;48.474;8.952;2022-10-26T03:48:59;11.90;99.90
11389;DHT22;5750;48.474;8.952;2022-10-26T03:51:25;11.90;99.90
11389;DHT22;5750;48.474;8.952;2022-10-26T03:53:52;11.90;99.90
11389;DHT22;5750;48.474;8.952;2022-10-26T03:56:18;11.90;99.90
11389;DHT22;5750;48.474;8.952;2022-10-26T03:58:45;11.90;99.90
11389;DHT22;5750;48.474;8.952;2022-10-26T04:01:13;11.40;99.90
11389;DHT22;5750;48.474;8.952;2022-10-26T04:03:39;11.90;99.90
11389;DHT22;5750;48.474;8.952;2022-10-26T04:06:06;11.90;99.90
11389;DHT22;5750;48.474;8.952;2022-10-26T04:08:33;11.90;99.90
11389;DHT22;5750;48.474;8.952;2022-10-26T04:10:59;11.90;99.90
11389;DHT22;5750;48.474;8.952;2022-10-26T04:13:26;12.00;99.90
11389;DHT22;5750;48.474;8.952;2022-10-26T04:15:52;12.00;99.90
11389;DHT22;5750;48.474;8.952;2022-10-26T04:18:20;12.10;99.90
11389;DHT22;5750;48.474;8.952;2022-10-26T04:20:47;12.20;99.90
11389;DHT22;5750;48.474;8.952;2022-10-26T04:23:14;12.20;99.90
11389;DHT22;5750;48.474;8.952;2022-10-26T04:25:41;12.20;99.90
11389;DHT22;5750;48.474;8.952;2022-10-26T04:28:09;12.20;99.90
11389;DHT22;5750;48.474;8.952;2022-10-26T04:30:36;12.20;99.90
11389;DHT22;5750;48.474;8.952;2022-10-26T04:33:03;12.20;99.90
11389;DHT22;5750;48.474;8.952;2022-10-26T04:35:31;12.10;99.90
11389;DHT22;5750;48.474;8.952;2022-10-26T04:37:58;12.00;99.90
11389;DHT22;5750;48.474;8.952;2022-10-26T04:40:26;12.00;99.90
11389;DHT22;5750;48.474;8.952;2022-10-26T04:42:52;12.00;99.90
11389;DHT22;5750;48.474;8.952;2022-10-26T04:45:19;12.00;99.90
11389;DHT22;5750;48.474;8.952;2022-10-26T04:47:46;12.00;99.90
11389;DHT22;5750;48.474;8.952;2022-10-26T04:50:13;12.00;99.90
11389;DHT22;5750;48.474;8.952;2022-10-26T04:52:41;12.00;99.90
11389;DHT22;5750;48.474;8.952;2022-10-26T04:55:07;12.00;99.90
11389;DHT22;5750;48.474;8.952;2022-10-26T04:57:34;11.90;99.90
11389;DHT22;5750;48.474;8.952;2022-10-26T05:00:03;11.80;99.90
11389;DHT22;5750;48.474;8.952;2022-10-26T05:02:29;11.80;99.90
11389;DHT22;5750;48.474;8.952;2022-10-26T05:04:56;11.80;99.90
11389;DHT22;5750;48.474;8.952;2022-10-26T05:07:22;11.80;99.90
11389;DHT22;5750;48.474;8.952;2022-10-26T05:09:50;11.80;99.90
11389;DHT22;5750;48.474;8.952;2022-10-26T05:12:17;11.80;99.90
11389;DHT22;5750;48.474;8.952;2022-10-26T05:14:43;11.80;99.90
11389;DHT22;5750;48.474;8.952;2022-10-26T05:17:10;11.90;99.90
11389;DHT22;5750;48.474;8.952;2022-10-26T05:19:36;11.80;99.90
11389;DHT22;5750;48.474;8.952;2022-10-26T05:22:03;11.80;99.90
11389;DHT22;5750;48.474;8.952;2022-10-26T05:24:30;11.80;99.90
11389;DHT22;5750;48.474;8.952;2022-10-26T05:26:58;11.90;99.90
11389;DHT22;5750;48.474;8.952;2022-10-26T05:29:24;11.90;99.90
11389;DHT22;5750;48.474;8.952;2022-10-26T05:31:51;12.00;99.90
11389;DHT22;5750;48.474;8.952;2022-10-26T05:34:17;12.00;99.90
11389;DHT22;5750;48.474;8.952;2022-10-26T05:36:44;12.00;99.90
11389;DHT22;5750;48.474;8.952;2022-10-26T05:39:10;12.00;99.90
11389;DHT22;5750;48.474;8.952;2022-10-26T05:41:37;12.00;99.90
11389;DHT22;5750;48.474;8.952;2022-10-26T05:44:05;12.00;99.90
11389;DHT22;5750;48.474;8.952;2022-10-26T05:46:31;12.10;99.90
11389;DHT22;5750;48.474;8.952;2022-10-26T05:48:58;12.00;99.90
11389;DHT22;5750;48.474;8.952;2022-10-26T05:51:24;12.10;99.90
11389;DHT22;5750;48.474;8.952;2022-10-26T05:53:51;12.10;99.90
11389;DHT22;5750;48.474;8.952;2022-10-26T05:56:20;12.10;99.90
11389;DHT22;5750;48.474;8.952;2022-10-26T05:58:53;12.10;99.90
11389;DHT22;5750;48.474;8.952;2022-10-26T06:01:24;12.20;99.90
11389;DHT22;5750;48.474;8.952;2022-10-26T06:03:56;12.20;99.90
11389;DHT22;5750;48.474;8.952;2022-10-26T06:06:26;12.20;99.90
11389;DHT22;5750;48.474;8.952;2022-10-26T06:08:54;12.20;99.90
11389;DHT22;5750;48.474;8.952;2022-10-26T06:11:21;12.30;99.90
11389;DHT22;5750;48.474;8.952;2022-10-26T06:13:48;12.30;99.90
11389;DHT22;5750;48.474;8.952;2022-10-26T06:16:20;12.30;99.90
11389;DHT22;5750;48.474;8.952;2022-10-26T06:18:53;12.30;99.90
11389;DHT22;5750;48.474;8.952;2022-10-26T06:21:33;12.00;99.90
11389;DHT22;5750;48.474;8.952;2022-10-26T06:24:03;12.20;99.90
11389;DHT22;5750;48.474;8.952;2022-10-26T06:26:35;12.20;99.90
11389;DHT22;5750;48.474;8.952;2022-10-26T06:29:08;12.20;99.90
11389;DHT22;5750;48.474;8.952;2022-10-26T06:31:38;12.20;99.90
11389;DHT22;5750;48.474;8.952;2022-10-26T06:34:05;12.20;99.90
11389;DHT22;5750;48.474;8.952;2022-10-26T06:36:35;12.30;99.90
11389;DHT22;5750;48.474;8.952;2022-10-26T06:39:03;12.30;99.90
11389;DHT22;5750;48.474;8.952;2022-10-26T06:41:30;12.20;99.90
11389;DHT22;5750;48.474;8.952;2022-10-26T06:43:57;12.40;99.90
11389;DHT22;5750;48.474;8.952;2022-10-26T06:46:26;12.50;99.90
11389;DHT22;5750;48.474;8.952;2022-10-26T06:48:56;12.60;99.90
11389;DHT22;5750;48.474;8.952;2022-10-26T06:51:26;12.60;99.90
11389;DHT22;5750;48.474;8.952;2022-10-26T06:53:54;12.70;99.90
11389;DHT22;5750;48.474;8.952;2022-10-26T06:56:22;12.70;99.90
11389;DHT22;5750;48.474;8.952;2022-10-26T06:58:49;12.80;99.90
11389;DHT22;5750;48.474;8.952;2022-10-26T07:01:17;12.80;99.90
11389;DHT22;5750;48.474;8.952;2022-10-26T07:03:44;12.80;99.90
11389;DHT22;5750;48.474;8.952;2022-10-26T07:06:10;12.80;99.90
11389;DHT22;5750;48.474;8.952;2022-10-26T07:08:38;12.80;99.90
11389;DHT22;5750;48.474;8.952;2022-10-26T07:11:05;12.90;99.90
11389;DHT22;5750;48.474;8.952;2022-10-26T07:13:33;12.90;99.90
11389;DHT22;5750;48.474;8.952;2022-10-26T07:16:00;13.00;99.90
11389;DHT22;5750;48.474;8.952;2022-10-26T07:18:26;13.10;99.90
11389;DHT22;5750;48.474;8.952;2022-10-26T07:20:53;13.10;99.90
11389;DHT22;5750;48.474;8.952;2022-10-26T07:23:19;13.10;99.90
11389;DHT22;5750;48.474;8.952;2022-10-26T07:25:48;13.20;99.90
11389;DHT22;5750;48.474;8.952;2022-10-26T07:28:15;13.20;99.90
11389;DHT22;5750;48.474;8.952;2022-10-26T07:30:41;13.30;99.90
11389;DHT22;5750;48.474;8.952;2022-10-26T07:33:09;13.30;99.90
11389;DHT22;5750;48.474;8.952;2022-10-26T07:35:35;13.50;99.90
11389;DHT22;5750;48.474;8.952;2022-10-26T07:38:02;13.50;99.90
11389;DHT22;5750;48.474;8.952;2022-10-26T07:40:29;13.60;99.90
11389;DHT22;5750;48.474;8.952;2022-10-26T07:42:57;13.60;99.90
11389;DHT22;5750;48.474;8.952;2022-10-26T07:45:24;13.60;99.90
11389;DHT22;5750;48.474;8.952;2022-10-26T07:47:51;13.70;99.90
11389;DHT22;5750;48.474;8.952;2022-10-26T07:50:18;13.70;99.90
11389;DHT22;5750;48.474;8.952;2022-10-26T07:52:44;13.80;99.90
11389;DHT22;5750;48.474;8.952;2022-10-26T07:55:11;13.80;99.90
11389;DHT22;5750;48.474;8.952;2022-10-26T07:57:38;13.80;99.90
11389;DHT22;5750;48.474;8.952;2022-10-26T08:00:07;13.90;99.90
11389;DHT22;5750;48.474;8.952;2022-10-26T08:02:34;14.00;99.90
11389;DHT22;5750;48.474;8.952;2022-10-26T08:05:01;14.10;99.90
11389;DHT22;5750;48.474;8.952;2022-10-26T08:07:27;14.10;99.90
11389;DHT22;5750;48.474;8.952;2022-10-26T08:09:54;14.20;99.90
11389;DHT22;5750;48.474;8.952;2022-10-26T08:12:20;14.30;99.90
11389;DHT22;5750;48.474;8.952;2022-10-26T08:14:47;14.40;99.90
11389;DHT22;5750;48.474;8.952;2022-10-26T08:17:15;14.60;99.90
11389;DHT22;5750;48.474;8.952;2022-10-26T08:19:42;14.70;99.90
11389;DHT22;5750;48.474;8.952;2022-10-26T08:22:08;14.80;99.90
11389;DHT22;5750;48.474;8.952;2022-10-26T08:24:35;14.90;99.90
11389;DHT22;5750;48.474;8.952;2022-10-26T08:27:01;15.00;99.90
11389;DHT22;5750;48.474;8.952;2022-10-26T08:29:28;15.10;99.90
11389;DHT22;5750;48.474;8.952;2022-10-26T08:31:54;15.20;99.90
11389;DHT22;5750;48.474;8.952;2022-10-26T08:34:23;15.30;99.90
11389;DHT22;5750;48.474;8.952;2022-10-26T08:36:50;15.50;99.90
11389;DHT22;5750;48.474;8.952;2022-10-26T08:39:16;15.60;99.90
11389;DHT22;5750;48.474;8.952;2022-10-26T08:41:44;15.70;99.90
11389;DHT22;5750;48.474;8.952;2022-10-26T08:44:15;15.80;99.90
11389;DHT22;5750;48.474;8.952;2022-10-26T08:46:44;15.90;99.90
11389;DHT22;5750;48.474;8.952;2022-10-26T08:49:14;16.00;99.90
11389;DHT22;5750;48.474;8.952;2022-10-26T08:51:44;16.10;99.90
11389;DHT22;5750;48.474;8.952;2022-10-26T08:54:13;16.20;99.90
11389;DHT22;5750;48.474;8.952;2022-10-26T08:56:41;16.30;99.90
11389;DHT22;5750;48.474;8.952;2022-10-26T08:59:09;16.40;99.90
11389;DHT22;5750;48.474;8.952;2022-10-26T09:01:38;16.40;99.90
11389;DHT22;5750;48.474;8.952;2022-10-26T09:04:07;16.50;99.90
11389;DHT22;5750;48.474;8.952;2022-10-26T09:06:38;16.50;99.90
11389;DHT22;5750;48.474;8.952;2022-10-26T09:09:11;16.60;99.90
11389;DHT22;5750;48.474;8.952;2022-10-26T09:11:45;16.60;99.90
11389;DHT22;5750;48.474;8.952;2022-10-26T09:14:15;16.70;99.90
11389;DHT22;5750;48.474;8.952;2022-10-26T09:16:46;16.80;99.90
11389;DHT22;5750;48.474;8.952;2022-10-26T09:19:22;16.90;99.90
11389;DHT22;5750;48.474;8.952;2022-10-26T09:21:52;17.10;99.90
11389;DHT22;5750;48.474;8.952;2022-10-26T09:24:24;17.10;99.90
11389;DHT22;5750;48.474;8.952;2022-10-26T09:26:52;17.20;99.90
11389;DHT22;5750;48.474;8.952;2022-10-26T09:29:20;17.30;99.90
11389;DHT22;5750;48.474;8.952;2022-10-26T09:31:48;17.50;99.90
11389;DHT22;5750;48.474;8.952;2022-10-26T09:34:20;17.50;99.90
11389;DHT22;5750;48.474;8.952;2022-10-26T09:36:50;17.50;99.90
11389;DHT22;5750;48.474;8.952;2022-10-26T09:39:19;17.50;99.90
11389;DHT22;5750;48.474;8.952;2022-10-26T09:41:51;17.40;99.90
11389;DHT22;5750;48.474;8.952;2022-10-26T09:44:20;17.40;99.90
11389;DHT22;5750;48.474;8.952;2022-10-26T09:46:52;17.40;99.90
11389;DHT22;5750;48.474;8.952;2022-10-26T09:49:22;17.50;99.90
11389;DHT22;5750;48.474;8.952;2022-10-26T09:51:54;17.60;99.90
11389;DHT22;5750;48.474;8.952;2022-10-26T09:54:21;17.90;99.90
11389;DHT22;5750;48.474;8.952;2022-10-26T09:56:50;18.10;99.90
11389;DHT22;5750;48.474;8.952;2022-10-26T09:59:19;18.30;99.90
11389;DHT22;5750;48.474;8.952;2022-10-26T10:01:46;18.60;99.90
11389;DHT22;5750;48.474;8.952;2022-10-26T10:04:17;18.80;99.90
11389;DHT22;5750;48.474;8.952;2022-10-26T10:06:46;19.00;99.90
11389;DHT22;5750;48.474;8.952;2022-10-26T10:09:13;19.20;99.90
11389;DHT22;5750;48.474;8.952;2022-10-26T10:11:40;19.40;99.90
11389;DHT22;5750;48.474;8.952;2022-10-26T10:14:12;19.50;99.90
11389;DHT22;5750;48.474;8.952;2022-10-26T10:16:41;19.80;99.90
11389;DHT22;5750;48.474;8.952;2022-10-26T10:19:19;20.00;99.90
11389;DHT22;5750;48.474;8.952;2022-10-26T10:21:47;20.20;99.90
11389;DHT22;5750;48.474;8.952;2022-10-26T10:24:20;20.20;99.90
11389;DHT22;5750;48.474;8.952;2022-10-26T10:26:54;20.20;99.90
11389;DHT22;5750;48.474;8.952;2022-10-26T10:29:25;20.50;99.90
11389;DHT22;5750;48.474;8.952;2022-10-26T10:31:54;20.50;99.90
11389;DHT22;5750;48.474;8.952;2022-10-26T10:34:20;20.70;99.90
11389;DHT22;5750;48.474;8.952;2022-10-26T10:36:47;21.00;99.90
11389;DHT22;5750;48.474;8.952;2022-10-26T10:39:23;21.10;99.90
11389;DHT22;5750;48.474;8.952;2022-10-26T10:41:51;21.50;99.90
11389;DHT22;5750;48.474;8.952;2022-10-26T10:44:21;21.50;99.90
11389;DHT22;5750;48.474;8.952;2022-10-26T10:46:51;21.70;99.90
11389;DHT22;5750;48.474;8.952;2022-10-26T10:49:25;22.00;99.90
11389;DHT22;5750;48.474;8.952;2022-10-26T10:51:53;22.00;99.90
11389;DHT22;5750;48.474;8.952;2022-10-26T10:54:21;21.90;99.90
11389;DHT22;5750;48.474;8.952;2022-10-26T10:56:50;22.00;99.90
11389;DHT22;5750;48.474;8.952;2022-10-26T10:59:24;22.00;99.90
11389;DHT22;5750;48.474;8.952;2022-10-26T11:01:58;22.10;99.90
11389;DHT22;5750;48.474;8.952;2022-10-26T11:04:35;22.10;99.90
11389;DHT22;5750;48.474;8.952;2022-10-26T11:07:04;22.10;99.90
11389;DHT22;5750;48.474;8.952;2022-10-26T11:09:32;22.10;99.90
11389;DHT22;5750;48.474;8.952;2022-10-26T11:12:02;22.10;99.90
11389;DHT22;5750;48.474;8.952;2022-10-26T11:14:29;22.30;99.90
11389;DHT22;5750;48.474;8.952;2022-10-26T11:17:01;22.10;99.90
11389;DHT22;5750;48.474;8.952;2022-10-26T11:19:29;22.10;99.90
11389;DHT22;5750;48.474;8.952;2022-10-26T11:21:59;22.00;99.90
11389;DHT22;5750;48.474;8.952;2022-10-26T11:24:28;21.90;99.90
11389;DHT22;5750;48.474;8.952;2022-10-26T11:26:57;21.80;99.90
11389;DHT22;5750;48.474;8.952;2022-10-26T11:29:27;21.90;99.90
11389;DHT22;5750;48.474;8.952;2022-10-26T11:31:56;21.90;99.90
11389;DHT22;5750;48.474;8.952;2022-10-26T11:34:26;22.10;99.90
11389;DHT22;5750;48.474;8.952;2022-10-26T11:36:56;22.40;99.90
11389;DHT22;5750;48.474;8.952;2022-10-26T11:39:27;22.30;99.90
11389;DHT22;5750;48.474;8.952;2022-10-26T11:42:00;22.40;99.90
11389;DHT22;5750;48.474;8.952;2022-10-26T11:44:29;22.40;99.90
11389;DHT22;5750;48.474;8.952;2022-10-26T11:47:00;22.40;99.90
11389;DHT22;5750;48.474;8.952;2022-10-26T11:49:28;22.30;99.90
11389;DHT22;5750;48.474;8.952;2022-10-26T11:51:58;22.30;99.90
11389;DHT22;5750;48.474;8.952;2022-10-26T11:54:27;22.60;99.90
11389;DHT22;5750;48.474;8.952;2022-10-26T11:56:55;22.70;99.90
11389;DHT22;5750;48.474;8.952;2022-10-26T11:59:23;22.90;99.90
11389;DHT22;5750;48.474;8.952;2022-10-26T12:01:51;23.00;99.90
11389;DHT22;5750;48.474;8.952;2022-10-26T12:04:20;22.80;99.90
11389;DHT22;5750;48.474;8.952;2022-10-26T12:06:49;22.60;99.90
11389;DHT22;5750;48.474;8.952;2022-10-26T12:09:18;22.60;99.90
11389;DHT22;5750;48.474;8.952;2022-10-26T12:11:45;22.50;99.90
11389;DHT22;5750;48.474;8.952;2022-10-26T12:14:16;22.60;99.90
11389;DHT22;5750;48.474;8.952;2022-10-26T12:16:50;22.60;99.90
11389;DHT22;5750;48.474;8.952;2022-10-26T12:19:20;22.60;99.90
11389;DHT22;5750;48.474;8.952;2022-10-26T12:21:53;22.80;99.90
11389;DHT22;5750;48.474;8.952;2022-10-26T12:24:23;23.10;99.90
11389;DHT22;5750;48.474;8.952;2022-10-26T12:26:51;23.30;99.90
11389;DHT22;5750;48.474;8.952;2022-10-26T12:32:01;23.50;99.90
11389;DHT22;5750;48.474;8.952;2022-10-26T12:37:23;23.10;99.90
11389;DHT22;5750;48.474;8.952;2022-10-26T12:39:53;22.90;99.90
11389;DHT22;5750;48.474;8.952;2022-10-26T12:42:27;23.00;99.90
11389;DHT22;5750;48.474;8.952;2022-10-26T12:45:00;23.00;99.90
11389;DHT22;5750;48.474;8.952;2022-10-26T12:50:21;23.10;99.90
11389;DHT22;5750;48.474;8.952;2022-10-26T12:52:50;23.10;99.90
11389;DHT22;5750;48.474;8.952;2022-10-26T12:58:13;23.20;99.90
11389;DHT22;5750;48.474;8.952;2022-10-26T13:00:45;23.30;99.90
11389;DHT22;5750;48.474;8.952;2022-10-26T13:03:16;23.40;99.90
11389;DHT22;5750;48.474;8.952;2022-10-26T13:06:06;23.50;99.90
11389;DHT22;5750;48.474;8.952;2022-10-26T13:08:39;23.50;99.90
11389;DHT22;5750;48.474;8.952;2022-10-26T13:11:12;23.50;99.90
11389;DHT22;5750;48.474;8.952;2022-10-26T13:13:40;23.40;99.90
11389;DHT22;5750;48.474;8.952;2022-10-26T13:16:09;23.60;99.90
11389;DHT22;5750;48.474;8.952;2022-10-26T13:18:39;23.90;99.90
11389;DHT22;5750;48.474;8.952;2022-10-26T13:21:07;24.10;99.90
11389;DHT22;5750;48.474;8.952;2022-10-26T13:23:36;24.40;99.90
11389;DHT22;5750;48.474;8.952;2022-10-26T13:26:06;24.30;99.90
11389;DHT22;5750;48.474;8.952;2022-10-26T13:28:42;24.60;99.90
11389;DHT22;5750;48.474;8.952;2022-10-26T13:31:09;24.60;99.90
11389;DHT22;5750;48.474;8.952;2022-10-26T13:33:37;24.60;99.90
11389;DHT22;5750;48.474;8.952;2022-10-26T13:36:05;24.60;99.90
11389;DHT22;5750;48.474;8.952;2022-10-26T13:38:36;24.80;99.90
11389;DHT22;5750;48.474;8.952;2022-10-26T13:41:06;25.00;99.90
11389;DHT22;5750;48.474;8.952;2022-10-26T13:43:32;24.90;99.90
11389;DHT22;5750;48.474;8.952;2022-10-26T13:46:02;24.80;99.90
11389;DHT22;5750;48.474;8.952;2022-10-26T13:48:30;24.70;99.90
11389;DHT22;5750;48.474;8.952;2022-10-26T13:50:59;24.60;99.90
11389;DHT22;5750;48.474;8.952;2022-10-26T13:53:29;24.30;99.90
11389;DHT22;5750;48.474;8.952;2022-10-26T13:55:59;24.20;99.90
11389;DHT22;5750;48.474;8.952;2022-10-26T13:58:30;24.10;99.90
11389;DHT22;5750;48.474;8.952;2022-10-26T14:01:01;24.00;99.90
11389;DHT22;5750;48.474;8.952;2022-10-26T14:03:28;23.90;99.90
11389;DHT22;5750;48.474;8.952;2022-10-26T14:05:55;23.70;99.90
11389;DHT22;5750;48.474;8.952;2022-10-26T14:08:22;23.60;99.90
11389;DHT22;5750;48.474;8.952;2022-10-26T14:10:51;23.50;99.90
11389;DHT22;5750;48.474;8.952;2022-10-26T14:13:20;23.30;99.90
11389;DHT22;5750;48.474;8.952;2022-10-26T14:15:49;23.10;99.90
11389;DHT22;5750;48.474;8.952;2022-10-26T14:18:17;23.00;99.90
11389;DHT22;5750;48.474;8.952;2022-10-26T14:20:46;22.90;99.90
11389;DHT22;5750;48.474;8.952;2022-10-26T14:23:26;22.80;99.90
11389;DHT22;5750;48.474;8.952;2022-10-26T14:25:53;22.70;99.90
11389;DHT22;5750;48.474;8.952;2022-10-26T14:28:23;22.60;99.90
11389;DHT22;5750;48.474;8.952;2022-10-26T14:30:51;22.60;99.90
11389;DHT22;5750;48.474;8.952;2022-10-26T14:33:18;22.60;99.90
11389;DHT22;5750;48.474;8.952;2022-10-26T14:35:45;22.70;99.90
11389;DHT22;5750;48.474;8.952;2022-10-26T14:38:14;22.60;99.90
11389;DHT22;5750;48.474;8.952;2022-10-26T14:40:42;22.50;99.90
11389;DHT22;5750;48.474;8.952;2022-10-26T14:43:10;22.50;99.90
11389;DHT22;5750;48.474;8.952;2022-10-26T14:45:40;22.50;99.90
11389;DHT22;5750;48.474;8.952;2022-10-26T14:48:18;22.30;99.90
11389;DHT22;5750;48.474;8.952;2022-10-26T14:50:55;22.30;99.90
11389;DHT22;5750;48.474;8.952;2022-10-26T14:53:24;22.30;99.90
11389;DHT22;5750;48.474;8.952;2022-10-26T14:55:53;22.10;99.90
11389;DHT22;5750;48.474;8.952;2022-10-26T14:58:21;22.00;99.90
11389;DHT22;5750;48.474;8.952;2022-10-26T15:03:31;21.70;99.90
11389;DHT22;5750;48.474;8.952;2022-10-26T15:05:58;21.60;99.90
11389;DHT22;5750;48.474;8.952;2022-10-26T15:08:45;21.60;99.90
11389;DHT22;5750;48.474;8.952;2022-10-26T15:11:13;21.60;99.90
11389;DHT22;5750;48.474;8.952;2022-10-26T15:13:39;21.50;99.90
11389;DHT22;5750;48.474;8.952;2022-10-26T15:16:08;21.60;99.90
11389;DHT22;5750;48.474;8.952;2022-10-26T15:18:36;21.50;99.90
11389;DHT22;5750;48.474;8.952;2022-10-26T15:21:06;21.40;99.90
11389;DHT22;5750;48.474;8.952;2022-10-26T15:23:40;21.20;99.90
11389;DHT22;5750;48.474;8.952;2022-10-26T15:26:08;21.30;99.90
11389;DHT22;5750;48.474;8.952;2022-10-26T15:28:37;21.10;99.90
11389;DHT22;5750;48.474;8.952;2022-10-26T15:31:05;21.00;99.90
11389;DHT22;5750;48.474;8.952;2022-10-26T15:33:32;21.00;99.90
11389;DHT22;5750;48.474;8.952;2022-10-26T15:36:13;20.90;99.90
11389;DHT22;5750;48.474;8.952;2022-10-26T15:38:40;20.60;99.90
11389;DHT22;5750;48.474;8.952;2022-10-26T15:41:12;20.50;99.90
11389;DHT22;5750;48.474;8.952;2022-10-26T15:43:40;20.60;99.90
11389;DHT22;5750;48.474;8.952;2022-10-26T15:46:06;20.30;99.90
11389;DHT22;5750;48.474;8.952;2022-10-26T15:48:33;20.20;99.90
11389;DHT22;5750;48.474;8.952;2022-10-26T15:51:00;20.10;99.90
11389;DHT22;5750;48.474;8.952;2022-10-26T15:53:28;19.90;99.90
11389;DHT22;5750;48.474;8.952;2022-10-26T15:55:55;19.80;99.90
11389;DHT22;5750;48.474;8.952;2022-10-26T15:58:23;19.80;99.90
11389;DHT22;5750;48.474;8.952;2022-10-26T16:00:49;19.50;99.90
11389;DHT22;5750;48.474;8.952;2022-10-26T16:03:17;19.40;99.90
11389;DHT22;5750;48.474;8.952;2022-10-26T16:05:44;19.30;99.90
11389;DHT22;5750;48.474;8.952;2022-10-26T16:08:10;19.00;99.90
11389;DHT22;5750;48.474;8.952;2022-10-26T16:10:39;18.90;99.90